Terminal Aerodrome Forecast
Issued by NWS Amarillo, TX

Home | Current Version | Previous Version | Text Only | Print | Product List | Glossary On
Versions: 1 2 3 4 5 6 7 8 9 10 11 12 13 14 15 16 17 18 19 20 21 22 23 24 25 26 27 28 29 30 31 32 33 34 35
000
FTUS44 KAMA 031100
TAFAMA
TAF
KAMA 031130Z 0312/0412 23016KT P6SM SKC WS020/22040KT
      TEMPO 0312/0315 4SM BR
     FM031500 27013KT P6SM SCT040 BKN200
     FM032300 10012KT P6SM SCT015 OVC040
     FM040100 08014KT 5SM -RA BR SCT005 OVC015
      TEMPO 0404/0408 2SM -RASN BR OVC004
     FM040800 04015G25KT P6SM -SN OVC002=

USA.gov is the U.S. government's official web portal to all federal, state and local government web resources and services.